sensor_id;sensor_type;location;lat;lon;timestamp;noise_LAeq;noise_LA_min;noise_LA_max;noise_LA01;noise_LA95
53135;Laerm;40912;51.552;9.874;2024-02-23T00:00:57;48.11;46.97;51.89;;
53135;Laerm;40912;51.552;9.874;2024-02-23T00:03:17;48.11;47.12;51.21;;
53135;Laerm;40912;51.552;9.874;2024-02-23T00:05:37;48.10;46.93;51.26;;
53135;Laerm;40912;51.552;9.874;2024-02-23T00:07:57;48.10;46.93;51.26;;
53135;Laerm;40912;51.552;9.874;2024-02-23T00:10:17;48.11;46.87;49.14;;
53135;Laerm;40912;51.552;9.874;2024-02-23T00:17:18;48.11;47.08;51.17;;
53135;Laerm;40912;51.552;9.874;2024-02-23T00:19:38;48.11;47.04;51.53;;
53135;Laerm;40912;51.552;9.874;2024-02-23T00:21:58;48.12;47.04;51.51;;
53135;Laerm;40912;51.552;9.874;2024-02-23T00:24:19;48.11;46.97;51.56;;
53135;Laerm;40912;51.552;9.874;2024-02-23T00:26:40;48.11;46.95;49.14;;
53135;Laerm;40912;51.552;9.874;2024-02-23T00:29:02;48.11;47.00;49.11;;
53135;Laerm;40912;51.552;9.874;2024-02-23T00:31:22;48.13;47.08;51.03;;
53135;Laerm;40912;51.552;9.874;2024-02-23T00:33:42;48.11;46.97;50.23;;
53135;Laerm;40912;51.552;9.874;2024-02-23T00:36:03;48.11;47.08;49.07;;
53135;Laerm;40912;51.552;9.874;2024-02-23T00:38:23;48.11;46.89;51.33;;
53135;Laerm;40912;51.552;9.874;2024-02-23T00:43:04;48.12;47.00;51.37;;
53135;Laerm;40912;51.552;9.874;2024-02-23T00:45:24;48.13;47.06;51.41;;
53135;Laerm;40912;51.552;9.874;2024-02-23T00:47:44;48.13;46.93;51.16;;
53135;Laerm;40912;51.552;9.874;2024-02-23T00:50:07;48.11;46.80;49.07;;
53135;Laerm;40912;51.552;9.874;2024-02-23T00:52:27;48.12;47.10;51.75;;
53135;Laerm;40912;51.552;9.874;2024-02-23T00:57:07;48.10;47.04;49.15;;
53135;Laerm;40912;51.552;9.874;2024-02-23T00:59:28;48.11;47.10;49.07;;
53135;Laerm;40912;51.552;9.874;2024-02-23T01:01:48;48.12;47.18;51.32;;
53135;Laerm;40912;51.552;9.874;2024-02-23T01:06:28;48.13;47.06;49.18;;
53135;Laerm;40912;51.552;9.874;2024-02-23T01:08:49;48.13;47.12;49.11;;
53135;Laerm;40912;51.552;9.874;2024-02-23T01:11:09;48.12;47.18;51.98;;
53135;Laerm;40912;51.552;9.874;2024-02-23T01:13:29;48.13;47.14;51.50;;
53135;Laerm;40912;51.552;9.874;2024-02-23T01:15:50;48.16;47.02;51.39;;
53135;Laerm;40912;51.552;9.874;2024-02-23T01:20:30;48.13;46.95;49.18;;
53135;Laerm;40912;51.552;9.874;2024-02-23T01:25:10;48.14;47.12;49.21;;
53135;Laerm;40912;51.552;9.874;2024-02-23T01:27:30;48.13;47.26;49.12;;
53135;Laerm;40912;51.552;9.874;2024-02-23T01:32:11;48.16;47.08;51.37;;
53135;Laerm;40912;51.552;9.874;2024-02-23T01:34:31;48.13;47.11;49.06;;
53135;Laerm;40912;51.552;9.874;2024-02-23T01:36:51;48.14;47.08;50.94;;
53135;Laerm;40912;51.552;9.874;2024-02-23T01:39:12;48.15;47.16;51.46;;
53135;Laerm;40912;51.552;9.874;2024-02-23T01:43:52;48.15;47.04;51.90;;
53135;Laerm;40912;51.552;9.874;2024-02-23T01:46:12;48.15;47.10;49.25;;
53135;Laerm;40912;51.552;9.874;2024-02-23T01:48:33;48.15;47.10;51.57;;
53135;Laerm;40912;51.552;9.874;2024-02-23T01:50:53;48.14;47.06;51.49;;
53135;Laerm;40912;51.552;9.874;2024-02-23T01:53:14;48.15;47.00;51.50;;
53135;Laerm;40912;51.552;9.874;2024-02-23T01:55:34;48.15;47.14;49.24;;
53135;Laerm;40912;51.552;9.874;2024-02-23T01:57:54;48.15;47.04;49.66;;
53135;Laerm;40912;51.552;9.874;2024-02-23T02:02:35;48.15;46.97;51.99;;
53135;Laerm;40912;51.552;9.874;2024-02-23T02:04:55;48.16;46.95;51.45;;
53135;Laerm;40912;51.552;9.874;2024-02-23T02:07:15;48.18;47.12;51.76;;
53135;Laerm;40912;51.552;9.874;2024-02-23T02:11:58;48.16;47.10;51.29;;
53135;Laerm;40912;51.552;9.874;2024-02-23T02:14:18;48.15;46.93;51.62;;
53135;Laerm;40912;51.552;9.874;2024-02-23T02:16:39;48.16;47.12;51.90;;
53135;Laerm;40912;51.552;9.874;2024-02-23T02:18:59;48.15;47.04;51.67;;
53135;Laerm;40912;51.552;9.874;2024-02-23T02:21:19;48.15;47.14;51.46;;
53135;Laerm;40912;51.552;9.874;2024-02-23T02:23:43;48.15;47.20;49.41;;
53135;Laerm;40912;51.552;9.874;2024-02-23T02:28:24;48.15;47.06;49.27;;
53135;Laerm;40912;51.552;9.874;2024-02-23T02:30:44;48.15;47.06;49.11;;
53135;Laerm;40912;51.552;9.874;2024-02-23T02:33:05;48.16;46.84;49.45;;
53135;Laerm;40912;51.552;9.874;2024-02-23T02:35:25;48.18;47.10;51.68;;
53135;Laerm;40912;51.552;9.874;2024-02-23T02:37:45;48.19;47.08;51.78;;
53135;Laerm;40912;51.552;9.874;2024-02-23T02:40:06;48.18;47.14;51.47;;
53135;Laerm;40912;51.552;9.874;2024-02-23T02:42:26;48.18;47.00;51.47;;
53135;Laerm;40912;51.552;9.874;2024-02-23T02:44:48;48.19;47.14;49.24;;
53135;Laerm;40912;51.552;9.874;2024-02-23T02:47:08;48.19;46.89;51.22;;
53135;Laerm;40912;51.552;9.874;2024-02-23T02:49:29;48.20;47.04;49.94;;
53135;Laerm;40912;51.552;9.874;2024-02-23T02:56:29;48.23;47.16;51.35;;
53135;Laerm;40912;51.552;9.874;2024-02-23T02:58:49;48.21;47.13;49.35;;
53135;Laerm;40912;51.552;9.874;2024-02-23T03:01:10;48.21;46.97;51.93;;
53135;Laerm;40912;51.552;9.874;2024-02-23T03:03:30;48.23;47.07;49.29;;
53135;Laerm;40912;51.552;9.874;2024-02-23T03:05:50;48.23;47.07;49.29;;
53135;Laerm;40912;51.552;9.874;2024-02-23T03:08:10;48.23;47.18;51.57;;
53135;Laerm;40912;51.552;9.874;2024-02-23T03:10:30;48.21;47.02;50.27;;
53135;Laerm;40912;51.552;9.874;2024-02-23T03:12:51;48.20;47.02;49.23;;
53135;Laerm;40912;51.552;9.874;2024-02-23T03:15:11;48.20;46.97;49.28;;
53135;Laerm;40912;51.552;9.874;2024-02-23T03:17:31;48.20;47.14;51.62;;
53135;Laerm;40912;51.552;9.874;2024-02-23T03:19:51;48.20;47.08;49.29;;
53135;Laerm;40912;51.552;9.874;2024-02-23T03:22:12;48.20;47.16;51.79;;
53135;Laerm;40912;51.552;9.874;2024-02-23T03:24:32;48.20;47.08;49.39;;
53135;Laerm;40912;51.552;9.874;2024-02-23T03:29:12;48.22;47.18;49.35;;
53135;Laerm;40912;51.552;9.874;2024-02-23T03:33:52;48.22;47.18;51.59;;
53135;Laerm;40912;51.552;9.874;2024-02-23T03:36:13;48.22;47.04;49.25;;
53135;Laerm;40912;51.552;9.874;2024-02-23T03:38:33;48.22;47.20;49.25;;
53135;Laerm;40912;51.552;9.874;2024-02-23T03:40:54;48.21;47.10;51.40;;
53135;Laerm;40912;51.552;9.874;2024-02-23T03:43:14;48.22;47.06;51.66;;
53135;Laerm;40912;51.552;9.874;2024-02-23T03:45:34;48.21;47.24;49.39;;
53135;Laerm;40912;51.552;9.874;2024-02-23T03:50:14;48.24;47.20;49.40;;
53135;Laerm;40912;51.552;9.874;2024-02-23T03:52:35;48.23;47.18;51.59;;
53135;Laerm;40912;51.552;9.874;2024-02-23T03:54:55;48.22;47.12;49.21;;
53135;Laerm;40912;51.552;9.874;2024-02-23T03:57:15;48.21;47.16;51.70;;
53135;Laerm;40912;51.552;9.874;2024-02-23T03:59:36;48.22;47.16;51.73;;
53135;Laerm;40912;51.552;9.874;2024-02-23T04:01:56;48.22;47.14;49.23;;
53135;Laerm;40912;51.552;9.874;2024-02-23T04:04:17;48.23;47.20;49.29;;
53135;Laerm;40912;51.552;9.874;2024-02-23T04:06:37;48.22;47.18;51.47;;
53135;Laerm;40912;51.552;9.874;2024-02-23T04:08:58;48.22;47.28;51.38;;
53135;Laerm;40912;51.552;9.874;2024-02-23T04:13:38;48.22;47.08;52.10;;
53135;Laerm;40912;51.552;9.874;2024-02-23T04:16:00;48.22;47.10;49.29;;
53135;Laerm;40912;51.552;9.874;2024-02-23T04:18:21;48.21;47.00;51.59;;
53135;Laerm;40912;51.552;9.874;2024-02-23T04:20:41;48.20;47.15;51.28;;
53135;Laerm;40912;51.552;9.874;2024-02-23T04:23:01;48.22;47.00;51.62;;
53135;Laerm;40912;51.552;9.874;2024-02-23T04:25:21;48.21;47.02;49.36;;
53135;Laerm;40912;51.552;9.874;2024-02-23T04:27:42;48.22;46.89;51.56;;
53135;Laerm;40912;51.552;9.874;2024-02-23T04:30:03;48.21;47.12;51.58;;
53135;Laerm;40912;51.552;9.874;2024-02-23T04:32:24;48.23;47.26;51.87;;
53135;Laerm;40912;51.552;9.874;2024-02-23T04:34:44;48.22;47.14;51.63;;
53135;Laerm;40912;51.552;9.874;2024-02-23T04:39:24;48.23;47.10;51.35;;
53135;Laerm;40912;51.552;9.874;2024-02-23T04:41:44;48.23;47.10;51.78;;
53135;Laerm;40912;51.552;9.874;2024-02-23T04:44:05;48.22;47.20;51.33;;
53135;Laerm;40912;51.552;9.874;2024-02-23T04:46:25;48.22;47.18;49.46;;
53135;Laerm;40912;51.552;9.874;2024-02-23T04:48:46;48.21;47.16;49.19;;
53135;Laerm;40912;51.552;9.874;2024-02-23T04:51:06;48.22;47.16;50.92;;
53135;Laerm;40912;51.552;9.874;2024-02-23T04:53:29;48.21;47.12;49.22;;
53135;Laerm;40912;51.552;9.874;2024-02-23T05:00:32;48.22;46.91;49.21;;
53135;Laerm;40912;51.552;9.874;2024-02-23T05:02:53;48.22;47.12;49.20;;
53135;Laerm;40912;51.552;9.874;2024-02-23T05:05:13;48.22;47.30;49.25;;
53135;Laerm;40912;51.552;9.874;2024-02-23T05:07:34;48.23;47.07;51.36;;
53135;Laerm;40912;51.552;9.874;2024-02-23T05:09:54;48.22;46.93;51.30;;
53135;Laerm;40912;51.552;9.874;2024-02-23T05:12:14;48.22;47.16;51.71;;
53135;Laerm;40912;51.552;9.874;2024-02-23T05:14:34;48.21;46.97;51.54;;
53135;Laerm;40912;51.552;9.874;2024-02-23T05:19:15;48.22;47.08;51.00;;
53135;Laerm;40912;51.552;9.874;2024-02-23T05:21:35;48.22;47.10;50.57;;
53135;Laerm;40912;51.552;9.874;2024-02-23T05:23:55;48.21;47.14;49.20;;
53135;Laerm;40912;51.552;9.874;2024-02-23T05:26:15;48.22;47.06;49.35;;
53135;Laerm;40912;51.552;9.874;2024-02-23T05:28:35;48.23;47.00;51.93;;
53135;Laerm;40912;51.552;9.874;2024-02-23T05:30:56;48.21;47.20;51.39;;
53135;Laerm;40912;51.552;9.874;2024-02-23T05:33:16;48.22;47.06;51.43;;
53135;Laerm;40912;51.552;9.874;2024-02-23T05:35:36;48.21;47.20;51.44;;
53135;Laerm;40912;51.552;9.874;2024-02-23T05:37:57;48.22;47.20;50.79;;
53135;Laerm;40912;51.552;9.874;2024-02-23T05:40:17;48.22;46.87;49.18;;
53135;Laerm;40912;51.552;9.874;2024-02-23T05:44:58;48.22;47.26;51.77;;
53135;Laerm;40912;51.552;9.874;2024-02-23T05:47:18;48.22;47.26;49.24;;
53135;Laerm;40912;51.552;9.874;2024-02-23T05:49:38;48.22;46.82;51.50;;
53135;Laerm;40912;51.552;9.874;2024-02-23T05:51:58;48.22;47.00;49.26;;
53135;Laerm;40912;51.552;9.874;2024-02-23T05:54:19;48.21;47.16;50.43;;
53135;Laerm;40912;51.552;9.874;2024-02-23T05:56:39;48.23;47.12;51.61;;
53135;Laerm;40912;51.552;9.874;2024-02-23T05:58:59;48.23;47.18;49.29;;
53135;Laerm;40912;51.552;9.874;2024-02-23T06:01:19;48.23;47.08;51.46;;
53135;Laerm;40912;51.552;9.874;2024-02-23T06:03:40;48.22;47.20;51.33;;
53135;Laerm;40912;51.552;9.874;2024-02-23T06:06:00;48.23;47.32;49.19;;
53135;Laerm;40912;51.552;9.874;2024-02-23T06:08:20;48.23;47.12;51.87;;
53135;Laerm;40912;51.552;9.874;2024-02-23T06:13:03;48.23;47.22;51.61;;
53135;Laerm;40912;51.552;9.874;2024-02-23T06:15:23;48.25;47.16;51.03;;
53135;Laerm;40912;51.552;9.874;2024-02-23T06:20:04;48.24;46.93;51.23;;
53135;Laerm;40912;51.552;9.874;2024-02-23T06:22:25;48.23;46.91;49.30;;
53135;Laerm;40912;51.552;9.874;2024-02-23T06:24:45;48.24;46.95;51.87;;
53135;Laerm;40912;51.552;9.874;2024-02-23T06:27:05;48.24;47.20;50.56;;
53135;Laerm;40912;51.552;9.874;2024-02-23T06:29:26;48.23;47.04;51.19;;
53135;Laerm;40912;51.552;9.874;2024-02-23T06:31:46;48.25;47.02;51.70;;
53135;Laerm;40912;51.552;9.874;2024-02-23T06:34:09;48.23;47.34;51.78;;
53135;Laerm;40912;51.552;9.874;2024-02-23T06:36:29;48.24;47.12;49.28;;
53135;Laerm;40912;51.552;9.874;2024-02-23T06:38:50;48.24;47.12;51.25;;
53135;Laerm;40912;51.552;9.874;2024-02-23T06:41:13;48.24;47.16;51.89;;
53135;Laerm;40912;51.552;9.874;2024-02-23T06:45:54;48.23;46.95;51.69;;
53135;Laerm;40912;51.552;9.874;2024-02-23T06:48:14;48.25;47.32;50.98;;
53135;Laerm;40912;51.552;9.874;2024-02-23T06:50:35;48.24;47.14;49.40;;
53135;Laerm;40912;51.552;9.874;2024-02-23T06:57:37;48.25;47.20;51.32;;
53135;Laerm;40912;51.552;9.874;2024-02-23T07:02:18;48.26;47.12;51.08;;
53135;Laerm;40912;51.552;9.874;2024-02-23T07:06:58;48.24;47.18;49.28;;
53135;Laerm;40912;51.552;9.874;2024-02-23T07:09:19;48.24;47.10;49.24;;
53135;Laerm;40912;51.552;9.874;2024-02-23T07:11:39;48.24;47.19;51.65;;
53135;Laerm;40912;51.552;9.874;2024-02-23T07:16:21;48.25;47.12;51.40;;
53135;Laerm;40912;51.552;9.874;2024-02-23T07:18:41;48.25;47.18;51.60;;
53135;Laerm;40912;51.552;9.874;2024-02-23T07:21:02;48.24;46.89;51.37;;
53135;Laerm;40912;51.552;9.874;2024-02-23T07:25:42;48.25;47.26;50.57;;
53135;Laerm;40912;51.552;9.874;2024-02-23T07:28:03;48.24;47.20;51.69;;
53135;Laerm;40912;51.552;9.874;2024-02-23T07:30:23;48.24;47.22;49.55;;
53135;Laerm;40912;51.552;9.874;2024-02-23T07:32:43;48.24;47.26;51.32;;
53135;Laerm;40912;51.552;9.874;2024-02-23T07:35:04;48.24;47.08;49.46;;
53135;Laerm;40912;51.552;9.874;2024-02-23T07:37:26;48.24;47.16;51.86;;
53135;Laerm;40912;51.552;9.874;2024-02-23T07:39:46;48.24;47.12;51.82;;
53135;Laerm;40912;51.552;9.874;2024-02-23T07:42:07;48.22;47.20;50.19;;
53135;Laerm;40912;51.552;9.874;2024-02-23T07:46:49;48.22;47.14;51.56;;
53135;Laerm;40912;51.552;9.874;2024-02-23T07:49:10;48.23;47.12;51.79;;
53135;Laerm;40912;51.552;9.874;2024-02-23T07:53:50;48.24;47.22;51.67;;
53135;Laerm;40912;51.552;9.874;2024-02-23T07:56:10;48.22;47.22;52.10;;
53135;Laerm;40912;51.552;9.874;2024-02-23T07:58:31;48.22;47.10;49.20;;
53135;Laerm;40912;51.552;9.874;2024-02-23T08:00:52;48.21;47.16;49.23;;
53135;Laerm;40912;51.552;9.874;2024-02-23T08:03:12;48.22;47.16;50.69;;
53135;Laerm;40912;51.552;9.874;2024-02-23T08:05:33;48.22;47.13;51.48;;
53135;Laerm;40912;51.552;9.874;2024-02-23T08:07:53;48.22;47.16;51.84;;
53135;Laerm;40912;51.552;9.874;2024-02-23T08:10:13;48.22;47.10;51.97;;
53135;Laerm;40912;51.552;9.874;2024-02-23T08:12:33;48.22;47.02;51.75;;
53135;Laerm;40912;51.552;9.874;2024-02-23T08:14:54;48.21;46.97;49.40;;
53135;Laerm;40912;51.552;9.874;2024-02-23T08:17:14;48.22;47.10;49.35;;
53135;Laerm;40912;51.552;9.874;2024-02-23T08:19:35;48.21;46.84;51.27;;
53135;Laerm;40912;51.552;9.874;2024-02-23T08:21:55;48.21;47.20;51.80;;
53135;Laerm;40912;51.552;9.874;2024-02-23T08:26:35;48.21;47.12;52.05;;
53135;Laerm;40912;51.552;9.874;2024-02-23T08:28:58;48.22;47.26;52.10;;
53135;Laerm;40912;51.552;9.874;2024-02-23T08:31:19;48.20;47.14;52.10;;
53135;Laerm;40912;51.552;9.874;2024-02-23T08:33:39;48.19;47.14;49.27;;
53135;Laerm;40912;51.552;9.874;2024-02-23T08:35:59;48.19;47.04;51.58;;
53135;Laerm;40912;51.552;9.874;2024-02-23T08:38:19;48.19;47.20;51.47;;
53135;Laerm;40912;51.552;9.874;2024-02-23T08:40:40;48.18;47.14;51.47;;
53135;Laerm;40912;51.552;9.874;2024-02-23T08:43:00;48.17;47.12;49.28;;
53135;Laerm;40912;51.552;9.874;2024-02-23T08:47:41;48.20;46.93;50.53;;
53135;Laerm;40912;51.552;9.874;2024-02-23T08:52:21;48.19;47.00;49.16;;
53135;Laerm;40912;51.552;9.874;2024-02-23T08:54:41;48.20;47.16;51.69;;
53135;Laerm;40912;51.552;9.874;2024-02-23T08:57:02;48.20;47.16;51.69;;
53135;Laerm;40912;51.552;9.874;2024-02-23T08:59:24;48.18;47.14;49.15;;
53135;Laerm;40912;51.552;9.874;2024-02-23T09:01:44;48.16;47.08;49.11;;
53135;Laerm;40912;51.552;9.874;2024-02-23T09:04:06;48.15;46.97;51.36;;
53135;Laerm;40912;51.552;9.874;2024-02-23T09:06:27;48.14;47.08;51.33;;
53135;Laerm;40912;51.552;9.874;2024-02-23T09:08:47;48.14;47.08;51.18;;
53135;Laerm;40912;51.552;9.874;2024-02-23T09:13:27;48.13;46.89;49.19;;
53135;Laerm;40912;51.552;9.874;2024-02-23T09:15:49;48.14;47.00;51.64;;
53135;Laerm;40912;51.552;9.874;2024-02-23T09:18:09;48.12;47.08;51.24;;
53135;Laerm;40912;51.552;9.874;2024-02-23T09:20:30;48.12;47.08;51.24;;
53135;Laerm;40912;51.552;9.874;2024-02-23T09:22:50;48.12;46.95;51.25;;
53135;Laerm;40912;51.552;9.874;2024-02-23T09:25:10;48.12;47.06;49.23;;
53135;Laerm;40912;51.552;9.874;2024-02-23T09:27:30;48.12;47.08;49.07;;
53135;Laerm;40912;51.552;9.874;2024-02-23T09:29:50;48.12;47.02;51.95;;
53135;Laerm;40912;51.552;9.874;2024-02-23T09:32:11;48.11;46.80;50.74;;
53135;Laerm;40912;51.552;9.874;2024-02-23T09:34:31;48.09;47.08;51.40;;
53135;Laerm;40912;51.552;9.874;2024-02-23T09:36:51;48.12;47.08;49.83;;
53135;Laerm;40912;51.552;9.874;2024-02-23T09:39:12;48.10;47.02;51.84;;
53135;Laerm;40912;51.552;9.874;2024-02-23T09:41:32;48.12;47.02;51.24;;
53135;Laerm;40912;51.552;9.874;2024-02-23T09:43:54;48.09;47.10;51.65;;
53135;Laerm;40912;51.552;9.874;2024-02-23T09:46:15;48.10;46.95;51.27;;
53135;Laerm;40912;51.552;9.874;2024-02-23T09:48:36;48.09;47.02;49.18;;
53135;Laerm;40912;51.552;9.874;2024-02-23T09:50:57;48.09;47.06;51.50;;
53135;Laerm;40912;51.552;9.874;2024-02-23T09:53:17;48.09;47.04;49.15;;
53135;Laerm;40912;51.552;9.874;2024-02-23T09:55:39;48.10;47.03;51.72;;
53135;Laerm;40912;51.552;9.874;2024-02-23T09:57:59;48.09;47.08;51.28;;
53135;Laerm;40912;51.552;9.874;2024-02-23T10:00:20;48.09;47.08;50.96;;
53135;Laerm;40912;51.552;9.874;2024-02-23T10:02:40;48.08;46.95;51.47;;
53135;Laerm;40912;51.552;9.874;2024-02-23T10:05:01;48.09;47.06;51.35;;
53135;Laerm;40912;51.552;9.874;2024-02-23T10:07:23;48.06;46.97;49.11;;
53135;Laerm;40912;51.552;9.874;2024-02-23T10:09:43;48.06;46.97;49.11;;
53135;Laerm;40912;51.552;9.874;2024-02-23T10:14:24;48.10;47.06;51.53;;
53135;Laerm;40912;51.552;9.874;2024-02-23T10:16:44;48.09;46.95;51.61;;
53135;Laerm;40912;51.552;9.874;2024-02-23T10:19:04;48.09;46.95;51.61;;
53135;Laerm;40912;51.552;9.874;2024-02-23T10:21:24;48.10;46.78;50.51;;
53135;Laerm;40912;51.552;9.874;2024-02-23T10:23:45;48.08;46.97;49.18;;
53135;Laerm;40912;51.552;9.874;2024-02-23T10:26:06;48.09;46.97;51.40;;
53135;Laerm;40912;51.552;9.874;2024-02-23T10:28:26;48.08;47.10;51.56;;
53135;Laerm;40912;51.552;9.874;2024-02-23T10:30:47;48.09;46.89;51.50;;
53135;Laerm;40912;51.552;9.874;2024-02-23T10:33:07;48.09;46.93;49.06;;
53135;Laerm;40912;51.552;9.874;2024-02-23T10:35:29;48.09;47.00;51.73;;
53135;Laerm;40912;51.552;9.874;2024-02-23T10:37:52;48.08;47.06;49.58;;
53135;Laerm;40912;51.552;9.874;2024-02-23T10:40:13;48.08;47.06;49.58;;
53135;Laerm;40912;51.552;9.874;2024-02-23T10:42:36;48.06;46.87;51.13;;
53135;Laerm;40912;51.552;9.874;2024-02-23T10:44:57;48.07;46.93;51.56;;
53135;Laerm;40912;51.552;9.874;2024-02-23T10:47:21;48.07;47.06;51.62;;
53135;Laerm;40912;51.552;9.874;2024-02-23T10:49:41;48.07;46.76;49.14;;
53135;Laerm;40912;51.552;9.874;2024-02-23T10:52:02;48.09;47.04;49.20;;
53135;Laerm;40912;51.552;9.874;2024-02-23T10:54:23;48.08;46.95;51.45;;
53135;Laerm;40912;51.552;9.874;2024-02-23T10:56:46;48.07;47.06;51.64;;
53135;Laerm;40912;51.552;9.874;2024-02-23T10:59:07;48.05;46.93;50.95;;
53135;Laerm;40912;51.552;9.874;2024-02-23T11:01:28;48.09;46.95;51.43;;
53135;Laerm;40912;51.552;9.874;2024-02-23T11:03:49;48.08;47.00;51.62;;
53135;Laerm;40912;51.552;9.874;2024-02-23T11:06:10;48.08;47.02;51.47;;
53135;Laerm;40912;51.552;9.874;2024-02-23T11:08:34;48.08;46.76;49.21;;
53135;Laerm;40912;51.552;9.874;2024-02-23T11:10:56;48.09;47.04;51.32;;
53135;Laerm;40912;51.552;9.874;2024-02-23T11:13:16;48.10;46.91;51.33;;
53135;Laerm;40912;51.552;9.874;2024-02-23T11:15:41;48.07;46.89;49.11;;
53135;Laerm;40912;51.552;9.874;2024-02-23T11:18:01;48.08;47.02;49.18;;
53135;Laerm;40912;51.552;9.874;2024-02-23T11:20:21;48.09;47.06;50.74;;
53135;Laerm;40912;51.552;9.874;2024-02-23T11:22:46;48.08;47.06;51.53;;
53135;Laerm;40912;51.552;9.874;2024-02-23T11:25:11;48.08;47.12;49.03;;
53135;Laerm;40912;51.552;9.874;2024-02-23T11:30:04;48.08;47.02;51.70;;
53135;Laerm;40912;51.552;9.874;2024-02-23T11:37:12;48.07;46.59;51.42;;
53135;Laerm;40912;51.552;9.874;2024-02-23T11:39:32;48.08;46.95;51.42;;
53135;Laerm;40912;51.552;9.874;2024-02-23T11:44:13;48.08;47.04;51.08;;
53135;Laerm;40912;51.552;9.874;2024-02-23T11:46:33;48.08;46.97;51.43;;
53135;Laerm;40912;51.552;9.874;2024-02-23T11:48:53;48.08;47.08;51.24;;
53135;Laerm;40912;51.552;9.874;2024-02-23T11:51:14;48.08;46.97;49.25;;
53135;Laerm;40912;51.552;9.874;2024-02-23T11:53:36;48.07;47.06;51.29;;
53135;Laerm;40912;51.552;9.874;2024-02-23T11:55:56;48.05;46.78;51.28;;
53135;Laerm;40912;51.552;9.874;2024-02-23T11:58:17;48.07;46.82;49.06;;
53135;Laerm;40912;51.552;9.874;2024-02-23T12:00:39;48.07;47.00;51.44;;
53135;Laerm;40912;51.552;9.874;2024-02-23T12:02:59;48.06;47.04;50.75;;
53135;Laerm;40912;51.552;9.874;2024-02-23T12:05:19;48.05;47.00;51.40;;
53135;Laerm;40912;51.552;9.874;2024-02-23T12:07:40;48.05;46.89;49.04;;
53135;Laerm;40912;51.552;9.874;2024-02-23T12:10:00;48.06;47.04;51.30;;
53135;Laerm;40912;51.552;9.874;2024-02-23T12:12:20;48.05;46.82;51.48;;
53135;Laerm;40912;51.552;9.874;2024-02-23T12:14:40;48.07;46.89;50.98;;
53135;Laerm;40912;51.552;9.874;2024-02-23T12:17:01;48.04;47.04;51.35;;
53135;Laerm;40912;51.552;9.874;2024-02-23T12:19:23;48.05;47.10;49.20;;
53135;Laerm;40912;51.552;9.874;2024-02-23T12:21:46;48.08;47.02;51.26;;
53135;Laerm;40912;51.552;9.874;2024-02-23T12:24:07;48.08;46.93;51.49;;
53135;Laerm;40912;51.552;9.874;2024-02-23T12:26:30;48.07;47.02;51.53;;
53135;Laerm;40912;51.552;9.874;2024-02-23T12:28:51;48.07;46.95;51.32;;
53135;Laerm;40912;51.552;9.874;2024-02-23T12:31:11;48.07;46.97;51.44;;
53135;Laerm;40912;51.552;9.874;2024-02-23T12:33:32;48.07;46.91;49.06;;
53135;Laerm;40912;51.552;9.874;2024-02-23T12:35:53;48.08;46.91;51.20;;
53135;Laerm;40912;51.552;9.874;2024-02-23T12:38:13;48.06;47.00;51.31;;
53135;Laerm;40912;51.552;9.874;2024-02-23T12:40:34;48.06;47.06;49.24;;
53135;Laerm;40912;51.552;9.874;2024-02-23T12:42:54;48.07;47.10;51.22;;
53135;Laerm;40912;51.552;9.874;2024-02-23T12:45:14;48.06;47.04;51.37;;
53135;Laerm;40912;51.552;9.874;2024-02-23T12:47:34;48.06;46.87;49.10;;
53135;Laerm;40912;51.552;9.874;2024-02-23T12:49:55;48.06;47.02;50.94;;
53135;Laerm;40912;51.552;9.874;2024-02-23T12:52:15;48.06;46.96;51.12;;
53135;Laerm;40912;51.552;9.874;2024-02-23T12:54:35;48.05;47.10;50.79;;
53135;Laerm;40912;51.552;9.874;2024-02-23T12:56:56;48.03;46.95;51.30;;
53135;Laerm;40912;51.552;9.874;2024-02-23T12:59:17;48.05;47.06;51.11;;
53135;Laerm;40912;51.552;9.874;2024-02-23T13:01:38;48.07;46.95;51.64;;
53135;Laerm;40912;51.552;9.874;2024-02-23T13:03:59;48.06;47.00;51.56;;
53135;Laerm;40912;51.552;9.874;2024-02-23T13:06:19;48.05;47.12;51.23;;
53135;Laerm;40912;51.552;9.874;2024-02-23T13:08:39;48.06;46.84;49.14;;
53135;Laerm;40912;51.552;9.874;2024-02-23T13:11:09;48.06;47.04;51.26;;
53135;Laerm;40912;51.552;9.874;2024-02-23T13:13:29;48.06;46.93;51.51;;
53135;Laerm;40912;51.552;9.874;2024-02-23T13:15:49;48.06;46.80;50.89;;
53135;Laerm;40912;51.552;9.874;2024-02-23T13:18:10;48.07;46.93;51.39;;
53135;Laerm;40912;51.552;9.874;2024-02-23T13:20:30;48.07;46.97;51.66;;
53135;Laerm;40912;51.552;9.874;2024-02-23T13:22:50;48.06;47.02;49.08;;
53135;Laerm;40912;51.552;9.874;2024-02-23T13:25:10;48.07;46.84;51.44;;
53135;Laerm;40912;51.552;9.874;2024-02-23T13:27:31;48.08;47.04;49.25;;
53135;Laerm;40912;51.552;9.874;2024-02-23T13:34:31;48.08;46.80;51.50;;
53135;Laerm;40912;51.552;9.874;2024-02-23T13:39:12;48.06;46.80;51.66;;
53135;Laerm;40912;51.552;9.874;2024-02-23T13:41:33;48.05;46.97;49.08;;
53135;Laerm;40912;51.552;9.874;2024-02-23T13:43:54;48.05;47.04;51.95;;
53135;Laerm;40912;51.552;9.874;2024-02-23T13:46:15;48.06;47.00;50.57;;
53135;Laerm;40912;51.552;9.874;2024-02-23T13:48:35;48.07;47.02;51.07;;
53135;Laerm;40912;51.552;9.874;2024-02-23T13:50:56;48.08;46.91;51.54;;
53135;Laerm;40912;51.552;9.874;2024-02-23T13:53:16;48.08;46.78;51.26;;
53135;Laerm;40912;51.552;9.874;2024-02-23T13:55:36;48.07;46.66;49.27;;
53135;Laerm;40912;51.552;9.874;2024-02-23T13:57:56;48.05;46.97;50.98;;
53135;Laerm;40912;51.552;9.874;2024-02-23T14:00:17;48.05;46.76;51.74;;
53135;Laerm;40912;51.552;9.874;2024-02-23T14:02:38;48.03;46.97;49.07;;
53135;Laerm;40912;51.552;9.874;2024-02-23T14:05:01;48.06;46.95;48.96;;
53135;Laerm;40912;51.552;9.874;2024-02-23T14:07:26;48.07;47.02;51.36;;
53135;Laerm;40912;51.552;9.874;2024-02-23T14:09:46;48.06;46.97;49.12;;
53135;Laerm;40912;51.552;9.874;2024-02-23T14:12:07;48.05;46.92;49.21;;
53135;Laerm;40912;51.552;9.874;2024-02-23T14:14:27;48.08;46.80;51.67;;
53135;Laerm;40912;51.552;9.874;2024-02-23T14:16:47;48.07;47.00;49.24;;
53135;Laerm;40912;51.552;9.874;2024-02-23T14:21:28;48.07;46.82;51.95;;
53135;Laerm;40912;51.552;9.874;2024-02-23T14:23:48;48.06;47.02;51.07;;
53135;Laerm;40912;51.552;9.874;2024-02-23T14:26:09;48.08;47.12;51.72;;
53135;Laerm;40912;51.552;9.874;2024-02-23T14:30:49;48.10;46.93;51.30;;
53135;Laerm;40912;51.552;9.874;2024-02-23T14:33:09;48.09;47.08;49.12;;
53135;Laerm;40912;51.552;9.874;2024-02-23T14:35:31;48.09;47.08;51.59;;
53135;Laerm;40912;51.552;9.874;2024-02-23T14:37:51;48.08;47.02;51.67;;
53135;Laerm;40912;51.552;9.874;2024-02-23T14:40:12;48.06;47.04;50.09;;
53135;Laerm;40912;51.552;9.874;2024-02-23T14:42:34;48.08;47.08;51.33;;
53135;Laerm;40912;51.552;9.874;2024-02-23T14:44:54;48.09;47.02;51.47;;
53135;Laerm;40912;51.552;9.874;2024-02-23T14:47:14;48.10;47.16;49.15;;
53135;Laerm;40912;51.552;9.874;2024-02-23T14:49:34;48.09;47.02;51.71;;
53135;Laerm;40912;51.552;9.874;2024-02-23T14:54:15;48.09;47.12;51.19;;
53135;Laerm;40912;51.552;9.874;2024-02-23T14:56:36;48.08;47.04;51.30;;
53135;Laerm;40912;51.552;9.874;2024-02-23T14:58:57;48.08;47.02;51.25;;
53135;Laerm;40912;51.552;9.874;2024-02-23T15:01:17;48.07;47.04;49.19;;